sensor_id;sensor_type;location;lat;lon;timestamp;P1;durP1;ratioP1;P2;durP2;ratioP2
9522;SDS011;63165;43.016;25.784;2022-11-15T00:00:45;46.83;;;13.75;;
9522;SDS011;63165;43.016;25.784;2022-11-15T00:03:13;40.20;;;13.18;;
9522;SDS011;63165;43.016;25.784;2022-11-15T00:05:41;40.20;;;12.52;;
9522;SDS011;63165;43.016;25.784;2022-11-15T00:08:08;47.35;;;14.10;;
9522;SDS011;63165;43.016;25.784;2022-11-15T00:10:37;47.10;;;13.23;;
9522;SDS011;63165;43.016;25.784;2022-11-15T00:13:05;44.55;;;12.10;;
9522;SDS011;63165;43.016;25.784;2022-11-15T00:15:34;37.45;;;12.23;;
9522;SDS011;63165;43.016;25.784;2022-11-15T00:18:02;39.75;;;12.10;;
9522;SDS011;63165;43.016;25.784;2022-11-15T00:20:29;42.67;;;13.02;;
9522;SDS011;63165;43.016;25.784;2022-11-15T00:22:57;51.45;;;12.32;;
9522;SDS011;63165;43.016;25.784;2022-11-15T00:25:24;39.17;;;13.00;;
9522;SDS011;63165;43.016;25.784;2022-11-15T00:27:56;40.67;;;12.52;;
9522;SDS011;63165;43.016;25.784;2022-11-15T00:30:23;39.42;;;12.18;;
9522;SDS011;63165;43.016;25.784;2022-11-15T00:32:51;43.15;;;12.18;;
9522;SDS011;63165;43.016;25.784;2022-11-15T00:35:19;44.38;;;12.75;;
9522;SDS011;63165;43.016;25.784;2022-11-15T00:37:46;50.90;;;12.93;;
9522;SDS011;63165;43.016;25.784;2022-11-15T00:40:14;44.00;;;13.05;;
9522;SDS011;63165;43.016;25.784;2022-11-15T00:42:41;48.78;;;12.75;;
9522;SDS011;63165;43.016;25.784;2022-11-15T00:45:10;50.05;;;13.32;;
9522;SDS011;63165;43.016;25.784;2022-11-15T00:47:37;41.92;;;12.65;;
9522;SDS011;63165;43.016;25.784;2022-11-15T00:50:04;50.53;;;12.85;;
9522;SDS011;63165;43.016;25.784;2022-11-15T00:52:32;48.58;;;12.00;;
9522;SDS011;63165;43.016;25.784;2022-11-15T00:54:59;45.88;;;13.02;;
9522;SDS011;63165;43.016;25.784;2022-11-15T00:57:27;49.30;;;13.02;;
9522;SDS011;63165;43.016;25.784;2022-11-15T00:59:54;44.53;;;12.80;;
9522;SDS011;63165;43.016;25.784;2022-11-15T01:02:22;46.95;;;12.90;;
9522;SDS011;63165;43.016;25.784;2022-11-15T01:04:49;48.58;;;12.40;;
9522;SDS011;63165;43.016;25.784;2022-11-15T01:07:17;51.08;;;12.02;;
9522;SDS011;63165;43.016;25.784;2022-11-15T01:09:44;44.80;;;13.05;;
9522;SDS011;63165;43.016;25.784;2022-11-15T01:12:11;51.63;;;13.70;;
9522;SDS011;63165;43.016;25.784;2022-11-15T01:14:38;49.00;;;13.65;;
9522;SDS011;63165;43.016;25.784;2022-11-15T01:17:05;44.58;;;14.00;;
9522;SDS011;63165;43.016;25.784;2022-11-15T01:19:34;47.97;;;12.82;;
9522;SDS011;63165;43.016;25.784;2022-11-15T01:22:01;50.50;;;14.07;;
9522;SDS011;63165;43.016;25.784;2022-11-15T01:24:28;48.85;;;14.25;;
9522;SDS011;63165;43.016;25.784;2022-11-15T01:26:55;54.58;;;14.70;;
9522;SDS011;63165;43.016;25.784;2022-11-15T01:29:23;52.33;;;14.35;;
9522;SDS011;63165;43.016;25.784;2022-11-15T01:31:50;48.40;;;14.35;;
9522;SDS011;63165;43.016;25.784;2022-11-15T01:34:19;53.10;;;14.75;;
9522;SDS011;63165;43.016;25.784;2022-11-15T01:36:47;51.70;;;14.85;;
9522;SDS011;63165;43.016;25.784;2022-11-15T01:39:14;48.05;;;14.15;;
9522;SDS011;63165;43.016;25.784;2022-11-15T01:41:42;49.03;;;14.70;;
9522;SDS011;63165;43.016;25.784;2022-11-15T01:47:05;52.22;;;13.93;;
9522;SDS011;63165;43.016;25.784;2022-11-15T01:49:38;50.38;;;14.32;;
9522;SDS011;63165;43.016;25.784;2022-11-15T01:52:12;49.88;;;14.40;;
9522;SDS011;63165;43.016;25.784;2022-11-15T01:54:44;51.63;;;14.13;;
9522;SDS011;63165;43.016;25.784;2022-11-15T01:57:12;55.28;;;14.18;;
9522;SDS011;63165;43.016;25.784;2022-11-15T01:59:42;59.50;;;13.57;;
9522;SDS011;63165;43.016;25.784;2022-11-15T02:02:11;52.47;;;14.18;;
9522;SDS011;63165;43.016;25.784;2022-11-15T02:04:42;58.22;;;14.73;;
9522;SDS011;63165;43.016;25.784;2022-11-15T02:07:13;52.28;;;14.30;;
9522;SDS011;63165;43.016;25.784;2022-11-15T02:09:43;51.05;;;13.15;;
9522;SDS011;63165;43.016;25.784;2022-11-15T02:12:11;49.80;;;13.80;;
9522;SDS011;63165;43.016;25.784;2022-11-15T02:14:41;53.50;;;13.43;;
9522;SDS011;63165;43.016;25.784;2022-11-15T02:17:15;47.67;;;13.45;;
9522;SDS011;63165;43.016;25.784;2022-11-15T02:23:08;48.80;;;15.30;;
9522;SDS011;63165;43.016;25.784;2022-11-15T02:26:03;53.80;;;14.50;;
9522;SDS011;63165;43.016;25.784;2022-11-15T02:28:52;54.13;;;14.77;;
9522;SDS011;63165;43.016;25.784;2022-11-15T02:31:28;57.95;;;15.43;;
9522;SDS011;63165;43.016;25.784;2022-11-15T02:34:03;54.55;;;14.48;;
9522;SDS011;63165;43.016;25.784;2022-11-15T02:36:36;50.65;;;14.80;;
9522;SDS011;63165;43.016;25.784;2022-11-15T02:39:11;57.53;;;14.70;;
9522;SDS011;63165;43.016;25.784;2022-11-15T02:41:46;52.78;;;14.57;;
9522;SDS011;63165;43.016;25.784;2022-11-15T02:44:21;48.03;;;13.65;;
9522;SDS011;63165;43.016;25.784;2022-11-15T02:46:52;50.08;;;14.13;;
9522;SDS011;63165;43.016;25.784;2022-11-15T02:49:43;63.35;;;15.55;;
9522;SDS011;63165;43.016;25.784;2022-11-15T02:52:14;59.67;;;16.23;;
9522;SDS011;63165;43.016;25.784;2022-11-15T02:54:43;61.55;;;17.95;;
9522;SDS011;63165;43.016;25.784;2022-11-15T02:57:20;61.20;;;16.02;;
9522;SDS011;63165;43.016;25.784;2022-11-15T03:00:03;52.05;;;14.32;;
9522;SDS011;63165;43.016;25.784;2022-11-15T03:02:39;56.05;;;13.90;;
9522;SDS011;63165;43.016;25.784;2022-11-15T03:05:22;58.95;;;15.20;;
9522;SDS011;63165;43.016;25.784;2022-11-15T03:07:54;55.17;;;14.73;;
9522;SDS011;63165;43.016;25.784;2022-11-15T03:10:32;64.22;;;15.65;;
9522;SDS011;63165;43.016;25.784;2022-11-15T03:13:06;54.97;;;14.73;;
9522;SDS011;63165;43.016;25.784;2022-11-15T03:15:46;52.22;;;13.73;;
9522;SDS011;63165;43.016;25.784;2022-11-15T03:18:22;54.47;;;15.25;;
9522;SDS011;63165;43.016;25.784;2022-11-15T03:20:54;52.00;;;15.07;;
9522;SDS011;63165;43.016;25.784;2022-11-15T03:23:24;47.25;;;14.15;;
9522;SDS011;63165;43.016;25.784;2022-11-15T03:25:53;61.53;;;15.43;;
9522;SDS011;63165;43.016;25.784;2022-11-15T03:28:23;48.75;;;13.27;;
9522;SDS011;63165;43.016;25.784;2022-11-15T03:30:55;49.80;;;13.30;;
9522;SDS011;63165;43.016;25.784;2022-11-15T03:33:25;46.25;;;13.63;;
9522;SDS011;63165;43.016;25.784;2022-11-15T03:35:54;50.20;;;13.73;;
9522;SDS011;63165;43.016;25.784;2022-11-15T03:38:23;50.42;;;15.15;;
9522;SDS011;63165;43.016;25.784;2022-11-15T03:40:53;59.53;;;14.48;;
9522;SDS011;63165;43.016;25.784;2022-11-15T03:43:26;53.33;;;14.85;;
9522;SDS011;63165;43.016;25.784;2022-11-15T03:46:01;62.60;;;14.80;;
9522;SDS011;63165;43.016;25.784;2022-11-15T03:48:34;66.88;;;18.63;;
9522;SDS011;63165;43.016;25.784;2022-11-15T03:51:06;78.80;;;20.13;;
9522;SDS011;63165;43.016;25.784;2022-11-15T03:53:33;65.53;;;18.60;;
9522;SDS011;63165;43.016;25.784;2022-11-15T03:56:00;60.80;;;16.27;;
9522;SDS011;63165;43.016;25.784;2022-11-15T03:58:27;61.55;;;18.02;;
9522;SDS011;63165;43.016;25.784;2022-11-15T04:00:55;70.95;;;17.90;;
9522;SDS011;63165;43.016;25.784;2022-11-15T04:03:22;66.10;;;19.42;;
9522;SDS011;63165;43.016;25.784;2022-11-15T04:05:50;58.17;;;18.63;;
9522;SDS011;63165;43.016;25.784;2022-11-15T04:08:17;61.80;;;19.77;;
9522;SDS011;63165;43.016;25.784;2022-11-15T04:10:45;67.93;;;16.83;;
9522;SDS011;63165;43.016;25.784;2022-11-15T04:13:15;63.17;;;16.75;;
9522;SDS011;63165;43.016;25.784;2022-11-15T04:15:42;58.80;;;16.45;;
9522;SDS011;63165;43.016;25.784;2022-11-15T04:18:10;54.10;;;14.90;;
9522;SDS011;63165;43.016;25.784;2022-11-15T04:20:37;132.15;;;35.85;;
9522;SDS011;63165;43.016;25.784;2022-11-15T04:23:22;89.63;;;31.50;;
9522;SDS011;63165;43.016;25.784;2022-11-15T04:26:08;65.90;;;22.17;;
9522;SDS011;63165;43.016;25.784;2022-11-15T04:28:37;63.60;;;20.75;;
9522;SDS011;63165;43.016;25.784;2022-11-15T04:31:26;57.28;;;17.15;;
9522;SDS011;63165;43.016;25.784;2022-11-15T04:33:53;58.13;;;16.25;;
9522;SDS011;63165;43.016;25.784;2022-11-15T04:36:21;48.92;;;14.10;;
9522;SDS011;63165;43.016;25.784;2022-11-15T04:39:07;54.45;;;14.98;;
9522;SDS011;63165;43.016;25.784;2022-11-15T04:41:35;62.83;;;16.70;;
9522;SDS011;63165;43.016;25.784;2022-11-15T04:44:02;67.78;;;17.15;;
9522;SDS011;63165;43.016;25.784;2022-11-15T04:46:29;66.93;;;18.65;;
9522;SDS011;63165;43.016;25.784;2022-11-15T04:48:57;54.13;;;15.43;;
9522;SDS011;63165;43.016;25.784;2022-11-15T04:51:24;63.38;;;17.60;;
9522;SDS011;63165;43.016;25.784;2022-11-15T04:53:51;61.47;;;17.70;;
9522;SDS011;63165;43.016;25.784;2022-11-15T04:56:20;47.67;;;15.48;;
9522;SDS011;63165;43.016;25.784;2022-11-15T04:58:48;58.97;;;17.52;;
9522;SDS011;63165;43.016;25.784;2022-11-15T05:01:15;53.70;;;15.82;;
9522;SDS011;63165;43.016;25.784;2022-11-15T05:03:43;58.15;;;16.90;;
9522;SDS011;63165;43.016;25.784;2022-11-15T05:06:28;54.40;;;15.05;;
9522;SDS011;63165;43.016;25.784;2022-11-15T05:08:56;52.70;;;15.55;;
9522;SDS011;63165;43.016;25.784;2022-11-15T05:11:25;58.22;;;16.27;;
9522;SDS011;63165;43.016;25.784;2022-11-15T05:13:53;59.35;;;17.27;;
9522;SDS011;63165;43.016;25.784;2022-11-15T05:16:21;52.55;;;15.35;;
9522;SDS011;63165;43.016;25.784;2022-11-15T05:18:50;56.75;;;16.75;;
9522;SDS011;63165;43.016;25.784;2022-11-15T05:21:18;51.42;;;15.30;;
9522;SDS011;63165;43.016;25.784;2022-11-15T05:23:45;59.30;;;16.10;;
9522;SDS011;63165;43.016;25.784;2022-11-15T05:26:13;51.03;;;14.65;;
9522;SDS011;63165;43.016;25.784;2022-11-15T05:28:44;58.40;;;19.15;;
9522;SDS011;63165;43.016;25.784;2022-11-15T05:31:12;54.92;;;17.02;;
9522;SDS011;63165;43.016;25.784;2022-11-15T05:33:41;129.80;;;36.15;;
9522;SDS011;63165;43.016;25.784;2022-11-15T05:36:12;114.15;;;31.42;;
9522;SDS011;63165;43.016;25.784;2022-11-15T05:38:44;92.40;;;28.48;;
9522;SDS011;63165;43.016;25.784;2022-11-15T05:41:13;93.40;;;25.25;;
9522;SDS011;63165;43.016;25.784;2022-11-15T05:43:42;56.38;;;16.45;;
9522;SDS011;63165;43.016;25.784;2022-11-15T05:46:12;57.90;;;16.30;;
9522;SDS011;63165;43.016;25.784;2022-11-15T05:48:40;66.50;;;17.58;;
9522;SDS011;63165;43.016;25.784;2022-11-15T05:51:11;64.40;;;18.10;;
9522;SDS011;63165;43.016;25.784;2022-11-15T05:53:40;49.60;;;16.08;;
9522;SDS011;63165;43.016;25.784;2022-11-15T05:56:08;54.85;;;15.43;;
9522;SDS011;63165;43.016;25.784;2022-11-15T05:58:36;54.30;;;16.60;;
9522;SDS011;63165;43.016;25.784;2022-11-15T06:01:05;69.00;;;18.67;;
9522;SDS011;63165;43.016;25.784;2022-11-15T06:03:33;74.30;;;20.70;;
9522;SDS011;63165;43.016;25.784;2022-11-15T06:06:00;64.57;;;18.52;;
9522;SDS011;63165;43.016;25.784;2022-11-15T06:08:28;63.15;;;18.60;;
9522;SDS011;63165;43.016;25.784;2022-11-15T06:10:55;66.70;;;19.42;;
9522;SDS011;63165;43.016;25.784;2022-11-15T06:13:23;80.38;;;21.88;;
9522;SDS011;63165;43.016;25.784;2022-11-15T06:15:50;70.57;;;20.98;;
9522;SDS011;63165;43.016;25.784;2022-11-15T06:18:23;68.35;;;19.90;;
9522;SDS011;63165;43.016;25.784;2022-11-15T06:20:50;73.75;;;20.55;;
9522;SDS011;63165;43.016;25.784;2022-11-15T06:23:17;74.32;;;20.92;;
9522;SDS011;63165;43.016;25.784;2022-11-15T06:25:45;73.28;;;19.73;;
9522;SDS011;63165;43.016;25.784;2022-11-15T06:28:12;74.57;;;23.63;;
9522;SDS011;63165;43.016;25.784;2022-11-15T06:30:39;68.78;;;19.95;;
9522;SDS011;63165;43.016;25.784;2022-11-15T06:33:06;87.00;;;23.73;;
9522;SDS011;63165;43.016;25.784;2022-11-15T06:35:35;82.03;;;24.35;;
9522;SDS011;63165;43.016;25.784;2022-11-15T06:38:03;97.68;;;24.67;;
9522;SDS011;63165;43.016;25.784;2022-11-15T06:40:33;86.60;;;22.52;;
9522;SDS011;63165;43.016;25.784;2022-11-15T06:43:01;81.57;;;21.55;;
9522;SDS011;63165;43.016;25.784;2022-11-15T06:45:29;94.70;;;24.85;;
9522;SDS011;63165;43.016;25.784;2022-11-15T06:47:56;91.60;;;24.70;;
9522;SDS011;63165;43.016;25.784;2022-11-15T06:50:23;89.05;;;24.13;;
9522;SDS011;63165;43.016;25.784;2022-11-15T06:52:52;91.57;;;24.45;;
9522;SDS011;63165;43.016;25.784;2022-11-15T06:55:19;101.15;;;25.70;;
9522;SDS011;63165;43.016;25.784;2022-11-15T06:57:47;92.28;;;24.15;;
9522;SDS011;63165;43.016;25.784;2022-11-15T07:00:15;101.85;;;26.00;;
9522;SDS011;63165;43.016;25.784;2022-11-15T07:02:43;103.68;;;25.63;;
9522;SDS011;63165;43.016;25.784;2022-11-15T07:05:11;91.32;;;24.85;;
9522;SDS011;63165;43.016;25.784;2022-11-15T07:07:39;97.72;;;26.80;;
9522;SDS011;63165;43.016;25.784;2022-11-15T07:10:09;101.28;;;28.95;;
9522;SDS011;63165;43.016;25.784;2022-11-15T07:12:36;111.57;;;27.50;;
9522;SDS011;63165;43.016;25.784;2022-11-15T07:15:03;114.43;;;29.13;;
9522;SDS011;63165;43.016;25.784;2022-11-15T07:17:33;114.57;;;27.92;;
9522;SDS011;63165;43.016;25.784;2022-11-15T07:20:00;112.63;;;29.58;;
9522;SDS011;63165;43.016;25.784;2022-11-15T07:22:27;127.10;;;33.50;;
9522;SDS011;63165;43.016;25.784;2022-11-15T07:24:54;238.95;;;68.72;;
9522;SDS011;63165;43.016;25.784;2022-11-15T07:27:23;217.65;;;63.33;;
9522;SDS011;63165;43.016;25.784;2022-11-15T07:29:51;137.70;;;39.05;;
9522;SDS011;63165;43.016;25.784;2022-11-15T07:32:18;126.53;;;32.05;;
9522;SDS011;63165;43.016;25.784;2022-11-15T07:34:45;138.32;;;37.83;;
9522;SDS011;63165;43.016;25.784;2022-11-15T07:37:12;135.15;;;33.88;;
9522;SDS011;63165;43.016;25.784;2022-11-15T07:39:40;124.45;;;31.55;;
9522;SDS011;63165;43.016;25.784;2022-11-15T07:42:07;106.43;;;27.40;;
9522;SDS011;63165;43.016;25.784;2022-11-15T07:44:53;101.30;;;27.63;;
9522;SDS011;63165;43.016;25.784;2022-11-15T07:47:20;121.35;;;27.83;;
9522;SDS011;63165;43.016;25.784;2022-11-15T07:49:47;103.60;;;26.38;;
9522;SDS011;63165;43.016;25.784;2022-11-15T07:52:14;99.95;;;28.20;;
9522;SDS011;63165;43.016;25.784;2022-11-15T07:54:41;109.45;;;27.75;;
9522;SDS011;63165;43.016;25.784;2022-11-15T07:57:08;101.90;;;26.40;;
9522;SDS011;63165;43.016;25.784;2022-11-15T07:59:36;98.18;;;24.30;;
9522;SDS011;63165;43.016;25.784;2022-11-15T08:02:05;98.78;;;24.98;;
9522;SDS011;63165;43.016;25.784;2022-11-15T08:04:32;92.22;;;23.88;;
9522;SDS011;63165;43.016;25.784;2022-11-15T08:06:59;91.68;;;23.55;;
9522;SDS011;63165;43.016;25.784;2022-11-15T08:09:27;92.82;;;24.70;;
9522;SDS011;63165;43.016;25.784;2022-11-15T08:11:54;88.50;;;23.38;;
9522;SDS011;63165;43.016;25.784;2022-11-15T08:14:22;84.80;;;23.00;;
9522;SDS011;63165;43.016;25.784;2022-11-15T08:16:49;88.47;;;23.55;;
9522;SDS011;63165;43.016;25.784;2022-11-15T08:19:19;98.35;;;23.83;;
9522;SDS011;63165;43.016;25.784;2022-11-15T08:21:47;90.00;;;22.95;;
9522;SDS011;63165;43.016;25.784;2022-11-15T08:24:15;91.28;;;23.17;;
9522;SDS011;63165;43.016;25.784;2022-11-15T08:26:43;81.32;;;21.67;;
9522;SDS011;63165;43.016;25.784;2022-11-15T08:29:10;92.20;;;24.77;;
9522;SDS011;63165;43.016;25.784;2022-11-15T08:31:38;90.60;;;23.77;;
9522;SDS011;63165;43.016;25.784;2022-11-15T08:34:22;72.45;;;21.27;;
9522;SDS011;63165;43.016;25.784;2022-11-15T08:36:50;89.00;;;22.00;;
9522;SDS011;63165;43.016;25.784;2022-11-15T08:39:18;87.32;;;24.08;;
9522;SDS011;63165;43.016;25.784;2022-11-15T08:41:45;85.05;;;24.10;;
9522;SDS011;63165;43.016;25.784;2022-11-15T08:44:12;100.30;;;25.35;;
9522;SDS011;63165;43.016;25.784;2022-11-15T08:46:40;78.15;;;21.95;;
9522;SDS011;63165;43.016;25.784;2022-11-15T08:49:07;86.30;;;23.90;;
9522;SDS011;63165;43.016;25.784;2022-11-15T08:51:36;79.85;;;19.95;;
9522;SDS011;63165;43.016;25.784;2022-11-15T08:54:03;76.82;;;21.30;;
9522;SDS011;63165;43.016;25.784;2022-11-15T08:56:30;72.47;;;19.20;;
9522;SDS011;63165;43.016;25.784;2022-11-15T08:59:00;74.22;;;20.75;;
9522;SDS011;63165;43.016;25.784;2022-11-15T09:01:28;77.47;;;21.52;;
9522;SDS011;63165;43.016;25.784;2022-11-15T09:03:55;90.70;;;22.20;;
9522;SDS011;63165;43.016;25.784;2022-11-15T09:06:22;81.35;;;22.48;;
9522;SDS011;63165;43.016;25.784;2022-11-15T09:08:51;75.55;;;19.98;;
9522;SDS011;63165;43.016;25.784;2022-11-15T09:11:18;71.70;;;20.13;;
9522;SDS011;63165;43.016;25.784;2022-11-15T09:13:47;77.50;;;19.73;;
9522;SDS011;63165;43.016;25.784;2022-11-15T09:16:14;62.90;;;17.65;;
9522;SDS011;63165;43.016;25.784;2022-11-15T09:18:41;81.93;;;22.02;;
9522;SDS011;63165;43.016;25.784;2022-11-15T09:21:09;75.22;;;21.40;;
9522;SDS011;63165;43.016;25.784;2022-11-15T09:23:37;74.05;;;19.88;;
9522;SDS011;63165;43.016;25.784;2022-11-15T09:26:06;81.25;;;22.98;;
9522;SDS011;63165;43.016;25.784;2022-11-15T09:28:33;85.25;;;23.88;;
9522;SDS011;63165;43.016;25.784;2022-11-15T09:31:01;100.13;;;27.38;;
9522;SDS011;63165;43.016;25.784;2022-11-15T09:33:30;126.50;;;37.63;;
9522;SDS011;63165;43.016;25.784;2022-11-15T09:35:59;112.47;;;29.77;;
9522;SDS011;63165;43.016;25.784;2022-11-15T09:38:27;83.05;;;23.25;;
9522;SDS011;63165;43.016;25.784;2022-11-15T09:40:58;93.38;;;26.58;;
9522;SDS011;63165;43.016;25.784;2022-11-15T09:43:45;82.38;;;22.42;;
9522;SDS011;63165;43.016;25.784;2022-11-15T09:46:21;58.60;;;16.20;;
9522;SDS011;63165;43.016;25.784;2022-11-15T09:48:53;49.17;;;12.48;;
9522;SDS011;63165;43.016;25.784;2022-11-15T09:51:27;55.75;;;16.60;;
9522;SDS011;63165;43.016;25.784;2022-11-15T09:53:58;61.45;;;18.40;;
9522;SDS011;63165;43.016;25.784;2022-11-15T09:56:32;71.45;;;19.70;;
9522;SDS011;63165;43.016;25.784;2022-11-15T09:59:19;65.25;;;18.50;;
9522;SDS011;63165;43.016;25.784;2022-11-15T10:02:08;54.55;;;16.42;;
9522;SDS011;63165;43.016;25.784;2022-11-15T10:04:44;59.35;;;16.88;;
9522;SDS011;63165;43.016;25.784;2022-11-15T10:07:13;59.22;;;17.75;;
9522;SDS011;63165;43.016;25.784;2022-11-15T10:09:45;59.97;;;15.40;;
9522;SDS011;63165;43.016;25.784;2022-11-15T10:12:17;60.78;;;16.65;;
9522;SDS011;63165;43.016;25.784;2022-11-15T10:14:45;54.33;;;16.15;;
9522;SDS011;63165;43.016;25.784;2022-11-15T10:20:09;60.60;;;16.38;;
9522;SDS011;63165;43.016;25.784;2022-11-15T10:22:44;54.22;;;15.88;;
9522;SDS011;63165;43.016;25.784;2022-11-15T10:25:17;57.50;;;16.70;;
9522;SDS011;63165;43.016;25.784;2022-11-15T10:27:50;53.13;;;16.13;;
9522;SDS011;63165;43.016;25.784;2022-11-15T10:30:21;48.42;;;14.75;;
9522;SDS011;63165;43.016;25.784;2022-11-15T10:32:49;52.20;;;15.18;;
9522;SDS011;63165;43.016;25.784;2022-11-15T10:35:17;51.38;;;14.93;;
9522;SDS011;63165;43.016;25.784;2022-11-15T10:37:47;51.00;;;13.88;;
9522;SDS011;63165;43.016;25.784;2022-11-15T10:40:16;51.58;;;15.95;;
9522;SDS011;63165;43.016;25.784;2022-11-15T10:42:45;53.58;;;15.02;;
9522;SDS011;63165;43.016;25.784;2022-11-15T10:45:28;58.10;;;14.98;;
9522;SDS011;63165;43.016;25.784;2022-11-15T10:48:18;54.65;;;15.25;;
9522;SDS011;63165;43.016;25.784;2022-11-15T10:50:48;46.08;;;14.23;;
9522;SDS011;63165;43.016;25.784;2022-11-15T10:53:18;45.03;;;13.75;;
9522;SDS011;63165;43.016;25.784;2022-11-15T10:55:51;42.35;;;12.68;;
9522;SDS011;63165;43.016;25.784;2022-11-15T10:58:30;57.67;;;16.45;;
9522;SDS011;63165;43.016;25.784;2022-11-15T11:01:15;55.65;;;15.93;;
9522;SDS011;63165;43.016;25.784;2022-11-15T11:03:45;48.25;;;14.05;;
9522;SDS011;63165;43.016;25.784;2022-11-15T11:06:24;45.78;;;14.07;;
9522;SDS011;63165;43.016;25.784;2022-11-15T11:08:55;50.60;;;15.07;;
9522;SDS011;63165;43.016;25.784;2022-11-15T11:11:24;44.05;;;13.93;;
9522;SDS011;63165;43.016;25.784;2022-11-15T11:13:52;53.13;;;14.68;;
9522;SDS011;63165;43.016;25.784;2022-11-15T11:16:30;53.13;;;17.42;;
9522;SDS011;63165;43.016;25.784;2022-11-15T11:19:35;49.15;;;14.88;;
9522;SDS011;63165;43.016;25.784;2022-11-15T11:22:16;52.55;;;14.50;;
9522;SDS011;63165;43.016;25.784;2022-11-15T11:24:51;54.97;;;15.68;;
9522;SDS011;63165;43.016;25.784;2022-11-15T11:27:29;52.50;;;15.13;;
9522;SDS011;63165;43.016;25.784;2022-11-15T11:30:07;50.45;;;14.93;;
9522;SDS011;63165;43.016;25.784;2022-11-15T11:35:49;47.53;;;14.13;;
9522;SDS011;63165;43.016;25.784;2022-11-15T11:38:27;49.58;;;15.15;;
9522;SDS011;63165;43.016;25.784;2022-11-15T11:41:04;67.50;;;16.00;;
9522;SDS011;63165;43.016;25.784;2022-11-15T11:43:40;51.58;;;14.70;;
9522;SDS011;63165;43.016;25.784;2022-11-15T11:49:15;73.18;;;18.35;;
9522;SDS011;63165;43.016;25.784;2022-11-15T11:51:50;51.00;;;14.95;;
9522;SDS011;63165;43.016;25.784;2022-11-15T11:54:22;53.47;;;14.68;;
9522;SDS011;63165;43.016;25.784;2022-11-15T11:56:59;55.33;;;16.17;;
9522;SDS011;63165;43.016;25.784;2022-11-15T11:59:28;49.25;;;16.02;;
9522;SDS011;63165;43.016;25.784;2022-11-15T12:02:08;62.40;;;18.40;;
9522;SDS011;63165;43.016;25.784;2022-11-15T12:04:43;102.45;;;20.50;;
9522;SDS011;63165;43.016;25.784;2022-11-15T12:07:17;102.80;;;19.13;;
9522;SDS011;63165;43.016;25.784;2022-11-15T12:09:51;96.03;;;19.27;;
9522;SDS011;63165;43.016;25.784;2022-11-15T12:12:27;145.85;;;24.42;;
9522;SDS011;63165;43.016;25.784;2022-11-15T12:15:00;104.53;;;23.88;;
9522;SDS011;63165;43.016;25.784;2022-11-15T12:17:30;51.67;;;15.40;;
9522;SDS011;63165;43.016;25.784;2022-11-15T12:19:59;62.40;;;18.45;;
9522;SDS011;63165;43.016;25.784;2022-11-15T12:22:33;65.32;;;16.77;;
9522;SDS011;63165;43.016;25.784;2022-11-15T12:25:07;58.92;;;17.33;;
9522;SDS011;63165;43.016;25.784;2022-11-15T12:27:42;127.65;;;25.05;;
9522;SDS011;63165;43.016;25.784;2022-11-15T12:30:14;89.10;;;21.15;;
9522;SDS011;63165;43.016;25.784;2022-11-15T12:32:49;106.15;;;24.98;;
9522;SDS011;63165;43.016;25.784;2022-11-15T12:35:23;73.75;;;19.08;;
9522;SDS011;63165;43.016;25.784;2022-11-15T12:37:56;277.80;;;34.15;;
9522;SDS011;63165;43.016;25.784;2022-11-15T12:40:30;48.92;;;14.35;;
9522;SDS011;63165;43.016;25.784;2022-11-15T12:46:12;51.13;;;15.65;;
9522;SDS011;63165;43.016;25.784;2022-11-15T12:48:52;56.38;;;16.85;;
9522;SDS011;63165;43.016;25.784;2022-11-15T12:54:55;69.93;;;17.23;;
9522;SDS011;63165;43.016;25.784;2022-11-15T12:57:40;58.00;;;16.73;;
9522;SDS011;63165;43.016;25.784;2022-11-15T13:03:25;67.47;;;17.70;;
9522;SDS011;63165;43.016;25.784;2022-11-15T13:06:01;70.40;;;17.30;;
9522;SDS011;63165;43.016;25.784;2022-11-15T13:08:38;216.20;;;27.92;;
9522;SDS011;63165;43.016;25.784;2022-11-15T13:17:23;63.20;;;17.90;;
9522;SDS011;63165;43.016;25.784;2022-11-15T13:22:52;70.63;;;21.95;;
9522;SDS011;63165;43.016;25.784;2022-11-15T13:25:40;59.95;;;17.80;;
9522;SDS011;63165;43.016;25.784;2022-11-15T13:28:21;53.75;;;16.05;;
9522;SDS011;63165;43.016;25.784;2022-11-15T13:30:55;65.10;;;16.67;;
9522;SDS011;63165;43.016;25.784;2022-11-15T13:33:25;86.47;;;18.45;;
9522;SDS011;63165;43.016;25.784;2022-11-15T13:35:57;60.80;;;15.40;;
9522;SDS011;63165;43.016;25.784;2022-11-15T13:38:28;57.13;;;15.48;;
9522;SDS011;63165;43.016;25.784;2022-11-15T13:40:56;52.20;;;14.65;;
9522;SDS011;63165;43.016;25.784;2022-11-15T13:43:32;64.20;;;18.92;;
9522;SDS011;63165;43.016;25.784;2022-11-15T13:46:10;66.53;;;14.60;;
9522;SDS011;63165;43.016;25.784;2022-11-15T13:48:40;63.40;;;21.08;;
9522;SDS011;63165;43.016;25.784;2022-11-15T13:51:09;70.45;;;20.27;;
9522;SDS011;63165;43.016;25.784;2022-11-15T13:53:43;86.10;;;19.40;;
9522;SDS011;63165;43.016;25.784;2022-11-15T13:56:13;46.58;;;13.70;;
9522;SDS011;63165;43.016;25.784;2022-11-15T13:58:43;46.60;;;13.55;;
9522;SDS011;63165;43.016;25.784;2022-11-15T14:01:14;49.05;;;14.18;;
9522;SDS011;63165;43.016;25.784;2022-11-15T14:03:49;46.47;;;14.15;;
9522;SDS011;63165;43.016;25.784;2022-11-15T14:06:19;51.80;;;15.57;;
9522;SDS011;63165;43.016;25.784;2022-11-15T14:11:51;43.38;;;13.30;;
9522;SDS011;63165;43.016;25.784;2022-11-15T14:14:22;206.15;;;54.67;;
9522;SDS011;63165;43.016;25.784;2022-11-15T14:16:51;135.35;;;41.55;;
9522;SDS011;63165;43.016;25.784;2022-11-15T14:19:36;62.40;;;18.92;;
9522;SDS011;63165;43.016;25.784;2022-11-15T14:22:09;78.78;;;23.27;;
9522;SDS011;63165;43.016;25.784;2022-11-15T14:24:38;69.15;;;22.48;;
9522;SDS011;63165;43.016;25.784;2022-11-15T14:27:19;70.65;;;23.48;;
9522;SDS011;63165;43.016;25.784;2022-11-15T14:29:50;57.42;;;17.98;;
9522;SDS011;63165;43.016;25.784;2022-11-15T14:32:18;51.45;;;15.27;;
9522;SDS011;63165;43.016;25.784;2022-11-15T14:35:09;53.20;;;17.50;;
9522;SDS011;63165;43.016;25.784;2022-11-15T14:37:54;46.15;;;14.93;;
9522;SDS011;63165;43.016;25.784;2022-11-15T14:40:21;49.85;;;16.60;;
9522;SDS011;63165;43.016;25.784;2022-11-15T14:42:49;53.83;;;16.40;;
9522;SDS011;63165;43.016;25.784;2022-11-15T14:45:18;52.08;;;16.77;;
9522;SDS011;63165;43.016;25.784;2022-11-15T14:47:48;52.47;;;17.67;;
9522;SDS011;63165;43.016;25.784;2022-11-15T14:50:16;54.35;;;16.88;;
9522;SDS011;63165;43.016;25.784;2022-11-15T14:52:45;54.40;;;18.13;;
9522;SDS011;63165;43.016;25.784;2022-11-15T14:55:14;52.28;;;17.13;;
9522;SDS011;63165;43.016;25.784;2022-11-15T14:57:44;59.45;;;18.45;;
9522;SDS011;63165;43.016;25.784;2022-11-15T15:00:12;59.83;;;19.33;;
9522;SDS011;63165;43.016;25.784;2022-11-15T15:02:42;59.85;;;19.25;;
9522;SDS011;63165;43.016;25.784;2022-11-15T15:05:15;65.95;;;19.23;;
9522;SDS011;63165;43.016;25.784;2022-11-15T15:07:43;59.72;;;17.35;;
9522;SDS011;63165;43.016;25.784;2022-11-15T15:10:11;45.50;;;13.65;;
9522;SDS011;63165;43.016;25.784;2022-11-15T15:12:39;59.40;;;17.63;;
9522;SDS011;63165;43.016;25.784;2022-11-15T15:15:11;96.60;;;32.67;;
9522;SDS011;63165;43.016;25.784;2022-11-15T15:17:42;61.80;;;20.05;;
9522;SDS011;63165;43.016;25.784;2022-11-15T15:20:09;136.60;;;42.20;;